createdAt,value
2022-11-16T00:02:45.108Z,-2.62
2022-11-16T00:08:07.827Z,-2.87
2022-11-16T00:13:33.346Z,-2.92
2022-11-16T00:19:00.738Z,-2.96
2022-11-16T00:24:28.286Z,-3.07
2022-11-16T00:29:53.633Z,-3.06
2022-11-16T00:35:20.007Z,-3.32
2022-11-16T00:40:50.847Z,-3.37
2022-11-16T00:46:13.705Z,-3.33
2022-11-16T00:51:37.309Z,-3.06
2022-11-16T00:57:00.166Z,-3.13
2022-11-16T01:02:22.923Z,-3.46
2022-11-16T01:07:45.427Z,-3.55
2022-11-16T01:13:07.868Z,-3.62
2022-11-16T01:18:30.045Z,-3.59
2022-11-16T01:23:52.831Z,-3.48
2022-11-16T01:29:15.145Z,-3.62
2022-11-16T01:34:43.626Z,-3.66
2022-11-16T01:40:18.207Z,-3.66
2022-11-16T01:45:43.089Z,-3.56
2022-11-16T01:51:07.727Z,-3.41
2022-11-16T01:56:32.526Z,-3.38
2022-11-16T02:02:04.845Z,-3.55
2022-11-16T02:08:17.287Z,-3.39
2022-11-16T02:13:51.483Z,-3.42
2022-11-16T02:19:38.713Z,-3.51
2022-11-16T02:25:20.965Z,-3.61
2022-11-16T02:30:50.227Z,-3.81
2022-11-16T02:36:17.664Z,-4.13
2022-11-16T02:41:43.303Z,-4.19
2022-11-16T02:47:23.608Z,-4.21
2022-11-16T02:52:46.984Z,-4.13
2022-11-16T02:58:13.244Z,-4.30
2022-11-16T03:03:44.703Z,-4.27
2022-11-16T03:09:12.905Z,-4.42
2022-11-16T03:14:46.603Z,-4.49
2022-11-16T03:26:02.045Z,-4.76
2022-11-16T03:37:17.147Z,-4.59
2022-11-16T03:49:05.464Z,-5.23
2022-11-16T03:54:58.767Z,-5.06
2022-11-16T04:00:44.114Z,-5.59
2022-11-16T04:06:28.900Z,-5.46
2022-11-16T04:12:10.564Z,-5.29
2022-11-16T04:17:52.365Z,-5.72
2022-11-16T04:23:35.599Z,-5.56
2022-11-16T04:29:02.506Z,-5.70
2022-11-16T04:34:47.007Z,-6.01
2022-11-16T04:40:30.326Z,-6.02
2022-11-16T04:46:27.590Z,-5.82
2022-11-16T04:52:03.388Z,-6.23
2022-11-16T04:57:40.759Z,-6.28
2022-11-16T05:03:11.427Z,-6.24
2022-11-16T05:08:51.007Z,-6.34
2022-11-16T05:14:33.834Z,-6.36
2022-11-16T05:56:26.322Z,-5.51
2022-11-16T06:01:51.075Z,-5.28
2022-11-16T06:07:13.310Z,-5.02
2022-11-16T06:12:35.926Z,-4.75
2022-11-16T06:17:58.185Z,-4.31
2022-11-16T06:23:20.334Z,-3.82
2022-11-16T06:28:43.065Z,-3.11
2022-11-16T06:34:05.388Z,-2.51
2022-11-16T06:39:31.086Z,-2.13
2022-11-16T06:44:53.577Z,-1.92
2022-11-16T06:50:20.767Z,-1.66
2022-11-16T06:55:49.105Z,-1.52
2022-11-16T07:01:16.794Z,-1.78
2022-11-16T07:06:43.506Z,-1.50
2022-11-16T07:12:14.887Z,-1.18
2022-11-16T07:18:10.786Z,-0.84
2022-11-16T07:23:36.110Z,-0.38
2022-11-16T07:29:00.568Z,0.35
2022-11-16T07:34:23.985Z,0.09
2022-11-16T07:40:17.467Z,0.51
2022-11-16T07:45:42.526Z,0.28
2022-11-16T07:51:09.348Z,0.57
2022-11-16T07:56:39.577Z,0.75
2022-11-16T08:02:03.695Z,0.56
2022-11-16T08:07:27.945Z,0.42
2022-11-16T08:12:53.286Z,0.12
2022-11-16T08:18:23.366Z,-0.22
2022-11-16T08:23:57.834Z,-0.30
2022-11-16T08:29:21.609Z,-0.28
2022-11-16T08:34:47.010Z,-0.25
2022-11-16T08:40:12.589Z,-0.64
2022-11-16T08:45:38.209Z,-0.62
2022-11-16T08:51:18.424Z,-0.65
2022-11-16T08:56:47.026Z,-0.68
2022-11-16T09:02:13.634Z,-0.67
2022-11-16T09:07:36.830Z,-0.15
2022-11-16T09:13:06.826Z,-0.07
2022-11-16T09:18:34.999Z,0.35
2022-11-16T09:24:05.687Z,0.56
2022-11-16T09:29:49.666Z,0.63
2022-11-16T09:35:45.686Z,0.51
2022-11-16T09:48:20.769Z,-0.23
2022-11-16T10:00:13.536Z,-0.26
2022-11-16T10:05:47.335Z,-0.09
2022-11-16T10:11:15.047Z,-0.18
2022-11-16T10:16:49.368Z,-0.19
2022-11-16T10:22:23.387Z,-0.12
2022-11-16T10:28:07.070Z,-0.08
2022-11-16T10:33:36.791Z,-0.39
2022-11-16T10:39:03.246Z,-0.33
2022-11-16T10:45:25.526Z,-0.39
2022-11-16T10:50:53.707Z,-0.53
2022-11-16T10:56:28.787Z,-0.56
2022-11-16T11:08:34.967Z,-0.57
2022-11-16T11:14:23.327Z,-0.84
2022-11-16T11:19:58.991Z,-0.71
2022-11-16T11:25:20.988Z,-0.78
2022-11-16T11:30:52.228Z,-1.03
2022-11-16T11:36:23.107Z,-0.93
2022-11-16T11:41:47.605Z,-0.96
2022-11-16T11:47:58.784Z,-1.28
2022-11-16T11:53:58.065Z,-1.01
2022-11-16T11:59:24.545Z,-0.99
2022-11-16T12:04:56.290Z,-1.02
2022-11-16T12:10:37.246Z,-1.06
2022-11-16T12:16:08.549Z,-1.10
2022-11-16T12:22:09.284Z,-1.11
2022-11-16T12:27:49.745Z,-1.17
2022-11-16T12:33:50.378Z,-1.16
2022-11-16T12:39:25.328Z,-1.13
2022-11-16T12:45:15.399Z,-1.10
2022-11-16T12:51:04.225Z,-1.08
2022-11-16T12:56:34.866Z,-1.07
2022-11-16T13:02:22.264Z,-1.16
2022-11-16T13:08:03.705Z,-1.17
2022-11-16T13:13:36.773Z,-1.20
2022-11-16T13:19:01.987Z,-1.24
2022-11-16T13:24:59.243Z,-1.23
2022-11-16T13:30:52.704Z,-1.29
2022-11-16T13:36:33.185Z,-1.28
2022-11-16T13:42:13.031Z,-1.31
2022-11-16T13:47:35.614Z,-1.31
2022-11-16T13:58:50.773Z,-1.34
2022-11-16T14:04:51.165Z,-1.33
2022-11-16T14:10:36.524Z,-1.32
2022-11-16T14:16:20.665Z,-1.34
2022-11-16T14:21:47.771Z,-1.36
2022-11-16T14:27:30.780Z,-1.36
2022-11-16T14:32:58.024Z,-1.40
2022-11-16T14:38:40.845Z,-1.33
2022-11-16T14:44:03.598Z,-1.49
2022-11-16T14:49:28.544Z,-1.37
2022-11-16T14:54:59.806Z,-1.35
2022-11-16T15:00:23.984Z,-1.44
2022-11-16T15:05:46.800Z,-1.34
2022-11-16T15:11:20.764Z,-1.34
2022-11-16T15:16:53.943Z,-1.35
2022-11-16T15:22:19.284Z,-1.30
2022-11-16T15:27:44.185Z,-1.40
2022-11-16T15:33:12.465Z,-1.32
2022-11-16T15:38:37.987Z,-1.32
2022-11-16T15:44:13.884Z,-1.31
2022-11-16T15:49:40.826Z,-1.34
2022-11-16T15:55:05.344Z,-1.39
2022-11-16T16:00:28.624Z,-1.33
2022-11-16T16:05:50.747Z,-1.39
2022-11-16T16:11:16.005Z,-1.35
2022-11-16T16:16:39.644Z,-1.35
2022-11-16T16:22:03.165Z,-1.35
2022-11-16T16:27:27.166Z,-1.37
2022-11-16T16:32:51.045Z,-1.38
2022-11-16T16:38:14.467Z,-1.38
2022-11-16T16:43:36.835Z,-1.40
2022-11-16T16:48:59.270Z,-1.38
2022-11-16T16:54:21.141Z,-1.46
2022-11-16T16:59:45.785Z,-1.48
2022-11-16T17:05:08.410Z,-1.42
2022-11-16T17:10:30.484Z,-1.61
2022-11-16T17:15:52.805Z,-1.47
2022-11-16T17:21:14.750Z,-1.51
2022-11-16T17:26:37.305Z,-1.58
2022-11-16T17:31:59.835Z,-1.57
2022-11-16T17:37:22.425Z,-1.53
2022-11-16T17:42:53.545Z,-1.77
2022-11-16T17:48:29.946Z,-1.72
2022-11-16T17:53:57.090Z,-1.70
2022-11-16T17:59:27.928Z,-1.79
2022-11-16T18:05:12.185Z,-1.74
2022-11-16T18:10:37.853Z,-1.74
2022-11-16T18:16:24.484Z,-1.66
2022-11-16T18:21:53.412Z,-1.77
2022-11-16T18:27:16.129Z,-1.65
2022-11-16T18:32:38.492Z,-1.67
2022-11-16T18:38:03.847Z,-1.78
2022-11-16T18:43:27.419Z,-1.72
2022-11-16T18:48:59.221Z,-1.66
2022-11-16T18:54:26.519Z,-1.76
2022-11-16T18:59:48.876Z,-1.81
2022-11-16T19:05:11.348Z,-1.84
2022-11-16T19:10:41.886Z,-1.80
2022-11-16T19:16:04.687Z,-1.82
2022-11-16T19:21:30.186Z,-1.85
2022-11-16T19:26:55.139Z,-1.89
2022-11-16T19:32:20.724Z,-1.95
2022-11-16T19:37:45.085Z,-1.86
2022-11-16T19:43:07.007Z,-2.00
2022-11-16T19:48:33.955Z,-2.06
2022-11-16T19:53:56.624Z,-2.04
2022-11-16T19:59:20.083Z,-2.11
2022-11-16T20:04:44.283Z,-2.09
2022-11-16T20:10:07.265Z,-2.10
2022-11-16T20:15:29.627Z,-2.12
2022-11-16T20:20:51.904Z,-2.03
2022-11-16T20:26:15.002Z,-2.12
2022-11-16T20:31:39.004Z,-2.10
2022-11-16T20:37:01.546Z,-2.09
2022-11-16T20:42:25.005Z,-2.04
2022-11-16T20:47:47.570Z,-2.22
2022-11-16T20:53:09.640Z,-2.21
2022-11-16T20:58:33.262Z,-2.07
2022-11-16T21:04:01.083Z,-2.07
2022-11-16T21:09:26.422Z,-2.15
2022-11-16T21:14:51.344Z,-2.26
2022-11-16T21:20:26.831Z,-2.37
2022-11-16T21:25:49.602Z,-2.48
2022-11-16T21:31:14.384Z,-2.52
2022-11-16T21:36:36.828Z,-2.56
2022-11-16T21:41:59.983Z,-2.66
2022-11-16T21:47:22.206Z,-2.70
2022-11-16T21:52:48.643Z,-2.71
2022-11-16T21:58:10.758Z,-2.76
2022-11-16T22:03:34.036Z,-2.73
2022-11-16T22:08:56.417Z,-2.66
2022-11-16T22:14:23.344Z,-2.74
2022-11-16T22:19:45.798Z,-2.75
2022-11-16T22:25:08.486Z,-2.69
2022-11-16T22:30:33.227Z,-2.58
2022-11-16T22:35:55.292Z,-2.72
2022-11-16T22:41:21.325Z,-2.79
2022-11-16T22:46:44.044Z,-2.70
2022-11-16T22:52:06.328Z,-2.87
2022-11-16T22:57:28.765Z,-2.78
2022-11-16T23:02:54.293Z,-2.80
2022-11-16T23:08:16.439Z,-2.87
2022-11-16T23:13:57.079Z,-2.91
2022-11-16T23:19:39.664Z,-2.78
2022-11-16T23:25:20.619Z,-2.98
2022-11-16T23:30:43.041Z,-2.90
2022-11-16T23:36:05.352Z,-2.99
2022-11-16T23:41:46.159Z,-3.07
2022-11-16T23:47:09.021Z,-2.96
2022-11-16T23:52:31.155Z,-2.89
2022-11-16T23:57:53.841Z,-2.87
